sensor_id;sensor_type;location;lat;lon;timestamp;pressure;altitude;pressure_sealevel;temperature;humidity
69306;BME280;56427;51.580;4.656;2023-04-28T00:00:43;101281.88;;;8.74;100.00
69306;BME280;56427;51.580;4.656;2023-04-28T00:03:08;101290.69;;;8.46;100.00
69306;BME280;56427;51.580;4.656;2023-04-28T00:05:34;101276.09;;;8.71;100.00
69306;BME280;56427;51.580;4.656;2023-04-28T00:08:00;101258.06;;;8.69;100.00
69306;BME280;56427;51.580;4.656;2023-04-28T00:10:29;101253.50;;;8.73;100.00
69306;BME280;56427;51.580;4.656;2023-04-28T00:12:54;101253.97;;;8.54;100.00
69306;BME280;56427;51.580;4.656;2023-04-28T00:15:20;101258.78;;;8.58;100.00
69306;BME280;56427;51.580;4.656;2023-04-28T00:17:45;101260.47;;;8.59;100.00
69306;BME280;56427;51.580;4.656;2023-04-28T00:20:11;101255.28;;;8.72;100.00
69306;BME280;56427;51.580;4.656;2023-04-28T00:22:36;101250.50;;;8.66;100.00
69306;BME280;56427;51.580;4.656;2023-04-28T00:25:02;101245.53;;;8.76;100.00
69306;BME280;56427;51.580;4.656;2023-04-28T00:27:28;101245.41;;;8.90;100.00
69306;BME280;56427;51.580;4.656;2023-04-28T00:29:53;101237.69;;;8.52;100.00
69306;BME280;56427;51.580;4.656;2023-04-28T00:32:18;101228.19;;;8.52;100.00
69306;BME280;56427;51.580;4.656;2023-04-28T00:34:44;101222.88;;;8.66;100.00
69306;BME280;56427;51.580;4.656;2023-04-28T00:37:10;101219.63;;;8.89;100.00
69306;BME280;56427;51.580;4.656;2023-04-28T00:39:35;101221.53;;;8.87;100.00
69306;BME280;56427;51.580;4.656;2023-04-28T00:42:01;101215.97;;;8.67;100.00
69306;BME280;56427;51.580;4.656;2023-04-28T00:44:28;101223.47;;;8.83;100.00
69306;BME280;56427;51.580;4.656;2023-04-28T00:46:53;101219.28;;;8.56;100.00
69306;BME280;56427;51.580;4.656;2023-04-28T00:49:19;101215.81;;;8.81;100.00
69306;BME280;56427;51.580;4.656;2023-04-28T00:51:45;101215.34;;;8.63;100.00
69306;BME280;56427;51.580;4.656;2023-04-28T00:54:12;101210.31;;;8.86;100.00
69306;BME280;56427;51.580;4.656;2023-04-28T00:56:38;101211.69;;;8.79;100.00
69306;BME280;56427;51.580;4.656;2023-04-28T00:59:03;101199.97;;;8.73;100.00
69306;BME280;56427;51.580;4.656;2023-04-28T01:01:29;101190.47;;;8.74;100.00
69306;BME280;56427;51.580;4.656;2023-04-28T01:03:55;101179.34;;;8.84;100.00
69306;BME280;56427;51.580;4.656;2023-04-28T01:06:21;101176.78;;;8.84;100.00
69306;BME280;56427;51.580;4.656;2023-04-28T01:08:47;101184.81;;;8.69;100.00
69306;BME280;56427;51.580;4.656;2023-04-28T01:11:13;101181.16;;;8.71;100.00
69306;BME280;56427;51.580;4.656;2023-04-28T01:13:39;101184.06;;;8.66;100.00
69306;BME280;56427;51.580;4.656;2023-04-28T01:16:05;101185.13;;;8.51;100.00
69306;BME280;56427;51.580;4.656;2023-04-28T01:18:32;101181.41;;;8.55;100.00
69306;BME280;56427;51.580;4.656;2023-04-28T01:20:58;101174.00;;;8.75;100.00
69306;BME280;56427;51.580;4.656;2023-04-28T01:23:24;101169.91;;;8.59;100.00
69306;BME280;56427;51.580;4.656;2023-04-28T01:25:49;101161.00;;;8.63;100.00
69306;BME280;56427;51.580;4.656;2023-04-28T01:28:15;101160.44;;;8.84;100.00
69306;BME280;56427;51.580;4.656;2023-04-28T01:30:40;101156.97;;;8.59;100.00
69306;BME280;56427;51.580;4.656;2023-04-28T01:33:06;101151.16;;;8.69;100.00
69306;BME280;56427;51.580;4.656;2023-04-28T01:35:31;101150.41;;;8.79;100.00
69306;BME280;56427;51.580;4.656;2023-04-28T01:37:56;101160.47;;;8.58;100.00
69306;BME280;56427;51.580;4.656;2023-04-28T01:40:22;101155.38;;;8.70;100.00
69306;BME280;56427;51.580;4.656;2023-04-28T01:42:47;101156.72;;;8.75;100.00
69306;BME280;56427;51.580;4.656;2023-04-28T01:45:12;101156.16;;;8.59;100.00
69306;BME280;56427;51.580;4.656;2023-04-28T01:47:38;101145.78;;;8.72;100.00
69306;BME280;56427;51.580;4.656;2023-04-28T01:50:04;101140.41;;;8.62;100.00
69306;BME280;56427;51.580;4.656;2023-04-28T01:52:30;101129.16;;;8.50;100.00
69306;BME280;56427;51.580;4.656;2023-04-28T01:54:55;101122.94;;;8.53;100.00
69306;BME280;56427;51.580;4.656;2023-04-28T01:57:21;101113.41;;;8.53;100.00
69306;BME280;56427;51.580;4.656;2023-04-28T01:59:46;101108.41;;;8.63;100.00
69306;BME280;56427;51.580;4.656;2023-04-28T02:02:12;101097.56;;;8.58;100.00
69306;BME280;56427;51.580;4.656;2023-04-28T02:04:38;101094.06;;;8.59;100.00
69306;BME280;56427;51.580;4.656;2023-04-28T02:07:03;101088.91;;;8.46;100.00
69306;BME280;56427;51.580;4.656;2023-04-28T02:09:29;101099.06;;;8.49;100.00
69306;BME280;56427;51.580;4.656;2023-04-28T02:11:54;101106.78;;;8.62;100.00
69306;BME280;56427;51.580;4.656;2023-04-28T02:14:19;101100.47;;;8.53;100.00
69306;BME280;56427;51.580;4.656;2023-04-28T02:16:45;101086.41;;;8.57;100.00
69306;BME280;56427;51.580;4.656;2023-04-28T02:19:10;101080.28;;;8.58;100.00
69306;BME280;56427;51.580;4.656;2023-04-28T02:21:36;101067.16;;;8.48;100.00
69306;BME280;56427;51.580;4.656;2023-04-28T02:24:01;101062.13;;;8.47;100.00
69306;BME280;56427;51.580;4.656;2023-04-28T02:26:27;101066.56;;;8.45;100.00
69306;BME280;56427;51.580;4.656;2023-04-28T02:28:52;101074.47;;;8.31;100.00
69306;BME280;56427;51.580;4.656;2023-04-28T02:31:17;101075.16;;;8.33;100.00
69306;BME280;56427;51.580;4.656;2023-04-28T02:33:43;101078.69;;;8.32;100.00
69306;BME280;56427;51.580;4.656;2023-04-28T02:36:09;101073.94;;;8.25;100.00
69306;BME280;56427;51.580;4.656;2023-04-28T02:38:35;101074.66;;;8.27;100.00
69306;BME280;56427;51.580;4.656;2023-04-28T02:41:04;101074.50;;;8.42;100.00
69306;BME280;56427;51.580;4.656;2023-04-28T02:43:30;101073.09;;;8.51;100.00
69306;BME280;56427;51.580;4.656;2023-04-28T02:45:56;101067.59;;;8.42;100.00
69306;BME280;56427;51.580;4.656;2023-04-28T02:48:23;101070.19;;;8.42;100.00
69306;BME280;56427;51.580;4.656;2023-04-28T02:50:48;101064.63;;;8.36;100.00
69306;BME280;56427;51.580;4.656;2023-04-28T02:53:14;101071.91;;;8.42;100.00
69306;BME280;56427;51.580;4.656;2023-04-28T02:55:39;101062.41;;;8.55;100.00
69306;BME280;56427;51.580;4.656;2023-04-28T02:58:05;101077.66;;;8.34;100.00
69306;BME280;56427;51.580;4.656;2023-04-28T03:00:30;101071.22;;;8.40;100.00
69306;BME280;56427;51.580;4.656;2023-04-28T03:02:55;101060.56;;;8.44;100.00
69306;BME280;56427;51.580;4.656;2023-04-28T03:05:21;101069.88;;;8.34;100.00
69306;BME280;56427;51.580;4.656;2023-04-28T03:07:46;101061.81;;;8.39;100.00
69306;BME280;56427;51.580;4.656;2023-04-28T03:10:11;101060.16;;;8.51;100.00
69306;BME280;56427;51.580;4.656;2023-04-28T03:12:37;101057.78;;;8.35;100.00
69306;BME280;56427;51.580;4.656;2023-04-28T03:15:02;101065.22;;;8.52;100.00
69306;BME280;56427;51.580;4.656;2023-04-28T03:17:28;101062.63;;;8.52;100.00
69306;BME280;56427;51.580;4.656;2023-04-28T03:19:53;101053.91;;;8.53;100.00
69306;BME280;56427;51.580;4.656;2023-04-28T03:22:19;101055.78;;;8.51;100.00
69306;BME280;56427;51.580;4.656;2023-04-28T03:24:44;101050.41;;;8.54;100.00
69306;BME280;56427;51.580;4.656;2023-04-28T03:27:10;101041.31;;;8.48;100.00
69306;BME280;56427;51.580;4.656;2023-04-28T03:29:35;101044.31;;;8.55;100.00
69306;BME280;56427;51.580;4.656;2023-04-28T03:32:01;101042.94;;;8.62;100.00
69306;BME280;56427;51.580;4.656;2023-04-28T03:34:26;101043.41;;;8.68;100.00
69306;BME280;56427;51.580;4.656;2023-04-28T03:36:51;101048.75;;;8.53;100.00
69306;BME280;56427;51.580;4.656;2023-04-28T03:39:17;101039.69;;;8.35;100.00
69306;BME280;56427;51.580;4.656;2023-04-28T03:41:42;101048.97;;;8.50;100.00
69306;BME280;56427;51.580;4.656;2023-04-28T03:44:08;101043.28;;;8.45;100.00
69306;BME280;56427;51.580;4.656;2023-04-28T03:46:33;101044.53;;;8.39;100.00
69306;BME280;56427;51.580;4.656;2023-04-28T03:48:59;101037.16;;;8.59;100.00
69306;BME280;56427;51.580;4.656;2023-04-28T03:51:27;101024.03;;;8.49;100.00
69306;BME280;56427;51.580;4.656;2023-04-28T03:53:53;101038.78;;;8.60;100.00
69306;BME280;56427;51.580;4.656;2023-04-28T03:56:19;101027.19;;;8.65;100.00
69306;BME280;56427;51.580;4.656;2023-04-28T03:58:44;101026.00;;;8.70;100.00
69306;BME280;56427;51.580;4.656;2023-04-28T04:01:10;101020.50;;;8.50;100.00
69306;BME280;56427;51.580;4.656;2023-04-28T04:03:35;101013.59;;;8.51;100.00
69306;BME280;56427;51.580;4.656;2023-04-28T04:06:01;101017.91;;;8.50;100.00
69306;BME280;56427;51.580;4.656;2023-04-28T04:08:26;101011.31;;;8.46;100.00
69306;BME280;56427;51.580;4.656;2023-04-28T04:10:52;101005.84;;;8.38;100.00
69306;BME280;56427;51.580;4.656;2023-04-28T04:13:19;101001.09;;;8.32;100.00
69306;BME280;56427;51.580;4.656;2023-04-28T04:15:44;101004.50;;;8.45;100.00
69306;BME280;56427;51.580;4.656;2023-04-28T04:18:10;100999.44;;;8.43;100.00
69306;BME280;56427;51.580;4.656;2023-04-28T04:20:35;100993.81;;;8.50;100.00
69306;BME280;56427;51.580;4.656;2023-04-28T04:23:01;100996.91;;;8.55;100.00
69306;BME280;56427;51.580;4.656;2023-04-28T04:25:27;100991.34;;;8.35;100.00
69306;BME280;56427;51.580;4.656;2023-04-28T04:27:53;100996.41;;;8.50;100.00
69306;BME280;56427;51.580;4.656;2023-04-28T04:30:18;100986.06;;;8.50;100.00
69306;BME280;56427;51.580;4.656;2023-04-28T04:32:44;100989.47;;;8.74;100.00
69306;BME280;56427;51.580;4.656;2023-04-28T04:35:09;100985.25;;;8.49;100.00
69306;BME280;56427;51.580;4.656;2023-04-28T04:37:35;100979.00;;;8.52;100.00
69306;BME280;56427;51.580;4.656;2023-04-28T04:40:00;100987.78;;;8.73;100.00
69306;BME280;56427;51.580;4.656;2023-04-28T04:42:26;100975.28;;;8.91;100.00
69306;BME280;56427;51.580;4.656;2023-04-28T04:44:51;100977.19;;;8.65;100.00
69306;BME280;56427;51.580;4.656;2023-04-28T04:47:17;100977.91;;;8.67;100.00
69306;BME280;56427;51.580;4.656;2023-04-28T04:49:43;100972.94;;;8.88;100.00
69306;BME280;56427;51.580;4.656;2023-04-28T04:52:08;100971.50;;;8.84;100.00
69306;BME280;56427;51.580;4.656;2023-04-28T04:54:33;100974.09;;;8.84;100.00
69306;BME280;56427;51.580;4.656;2023-04-28T04:56:59;100970.94;;;8.92;100.00
69306;BME280;56427;51.580;4.656;2023-04-28T04:59:24;100971.75;;;8.92;100.00
69306;BME280;56427;51.580;4.656;2023-04-28T05:01:49;100972.09;;;8.88;100.00
69306;BME280;56427;51.580;4.656;2023-04-28T05:04:15;100981.88;;;8.95;100.00
69306;BME280;56427;51.580;4.656;2023-04-28T05:06:40;100980.81;;;8.98;100.00
69306;BME280;56427;51.580;4.656;2023-04-28T05:09:05;100979.03;;;8.87;100.00
69306;BME280;56427;51.580;4.656;2023-04-28T05:11:31;100972.78;;;8.78;100.00
69306;BME280;56427;51.580;4.656;2023-04-28T05:13:56;100986.72;;;9.00;100.00
69306;BME280;56427;51.580;4.656;2023-04-28T05:16:22;100986.59;;;8.90;100.00
69306;BME280;56427;51.580;4.656;2023-04-28T05:18:47;100984.38;;;8.97;100.00
69306;BME280;56427;51.580;4.656;2023-04-28T05:21:12;100985.00;;;9.23;100.00
69306;BME280;56427;51.580;4.656;2023-04-28T05:23:38;100985.31;;;9.07;100.00
69306;BME280;56427;51.580;4.656;2023-04-28T05:26:03;100986.13;;;9.08;100.00
69306;BME280;56427;51.580;4.656;2023-04-28T05:28:29;100990.75;;;9.15;100.00
69306;BME280;56427;51.580;4.656;2023-04-28T05:30:55;100994.41;;;9.24;100.00
69306;BME280;56427;51.580;4.656;2023-04-28T05:33:20;100984.31;;;9.21;100.00
69306;BME280;56427;51.580;4.656;2023-04-28T05:35:48;100996.59;;;9.53;100.00
69306;BME280;56427;51.580;4.656;2023-04-28T05:38:13;100985.38;;;9.41;100.00
69306;BME280;56427;51.580;4.656;2023-04-28T05:40:39;100982.81;;;9.41;100.00
69306;BME280;56427;51.580;4.656;2023-04-28T05:43:04;100991.84;;;9.35;100.00
69306;BME280;56427;51.580;4.656;2023-04-28T05:45:29;100988.09;;;8.93;100.00
69306;BME280;56427;51.580;4.656;2023-04-28T05:47:55;100987.66;;;8.99;100.00
69306;BME280;56427;51.580;4.656;2023-04-28T05:50:20;100988.66;;;8.74;100.00
69306;BME280;56427;51.580;4.656;2023-04-28T05:52:46;100980.63;;;9.12;100.00
69306;BME280;56427;51.580;4.656;2023-04-28T05:55:11;100985.91;;;9.11;100.00
69306;BME280;56427;51.580;4.656;2023-04-28T05:57:36;100985.56;;;9.04;100.00
69306;BME280;56427;51.580;4.656;2023-04-28T06:00:02;100982.84;;;9.06;100.00
69306;BME280;56427;51.580;4.656;2023-04-28T06:02:28;100990.38;;;8.73;100.00
69306;BME280;56427;51.580;4.656;2023-04-28T06:04:53;100988.22;;;8.91;100.00
69306;BME280;56427;51.580;4.656;2023-04-28T06:07:18;100990.34;;;8.97;100.00
69306;BME280;56427;51.580;4.656;2023-04-28T06:09:44;100997.91;;;9.00;100.00
69306;BME280;56427;51.580;4.656;2023-04-28T06:12:09;100998.75;;;9.12;100.00
69306;BME280;56427;51.580;4.656;2023-04-28T06:14:35;101005.72;;;9.23;100.00
69306;BME280;56427;51.580;4.656;2023-04-28T06:17:02;101000.84;;;9.07;100.00
69306;BME280;56427;51.580;4.656;2023-04-28T06:19:28;100996.88;;;9.03;100.00
69306;BME280;56427;51.580;4.656;2023-04-28T06:21:53;101004.44;;;9.29;100.00
69306;BME280;56427;51.580;4.656;2023-04-28T06:24:18;101005.16;;;9.42;100.00
69306;BME280;56427;51.580;4.656;2023-04-28T06:26:44;100997.84;;;9.25;100.00
69306;BME280;56427;51.580;4.656;2023-04-28T06:29:09;101002.44;;;9.32;100.00
69306;BME280;56427;51.580;4.656;2023-04-28T06:31:37;100998.91;;;9.33;100.00
69306;BME280;56427;51.580;4.656;2023-04-28T06:34:03;101006.22;;;9.39;100.00
69306;BME280;56427;51.580;4.656;2023-04-28T06:36:28;101002.59;;;9.65;100.00
69306;BME280;56427;51.580;4.656;2023-04-28T06:38:53;100995.16;;;9.71;100.00
69306;BME280;56427;51.580;4.656;2023-04-28T06:41:19;100995.50;;;9.67;100.00
69306;BME280;56427;51.580;4.656;2023-04-28T06:43:45;100995.75;;;9.41;100.00
69306;BME280;56427;51.580;4.656;2023-04-28T06:46:10;100998.34;;;9.64;100.00
69306;BME280;56427;51.580;4.656;2023-04-28T06:48:36;101002.81;;;9.50;100.00
69306;BME280;56427;51.580;4.656;2023-04-28T06:51:01;100995.50;;;9.67;100.00
69306;BME280;56427;51.580;4.656;2023-04-28T06:53:27;101010.00;;;9.58;100.00
69306;BME280;56427;51.580;4.656;2023-04-28T06:55:53;100988.22;;;9.72;100.00
69306;BME280;56427;51.580;4.656;2023-04-28T06:58:19;100991.88;;;9.81;100.00
69306;BME280;56427;51.580;4.656;2023-04-28T07:00:44;100986.34;;;9.74;100.00
69306;BME280;56427;51.580;4.656;2023-04-28T07:03:10;100993.59;;;10.03;100.00
69306;BME280;56427;51.580;4.656;2023-04-28T07:05:35;100994.09;;;9.97;100.00
69306;BME280;56427;51.580;4.656;2023-04-28T07:08:05;100988.66;;;10.00;100.00
69306;BME280;56427;51.580;4.656;2023-04-28T07:10:30;101002.47;;;10.11;100.00
69306;BME280;56427;51.580;4.656;2023-04-28T07:12:56;100997.88;;;9.92;100.00
69306;BME280;56427;51.580;4.656;2023-04-28T07:15:22;101002.00;;;9.95;100.00
69306;BME280;56427;51.580;4.656;2023-04-28T07:17:48;100990.56;;;9.98;100.00
69306;BME280;56427;51.580;4.656;2023-04-28T07:20:14;100992.31;;;10.08;100.00
69306;BME280;56427;51.580;4.656;2023-04-28T07:22:39;100998.78;;;10.03;100.00
69306;BME280;56427;51.580;4.656;2023-04-28T07:25:05;100999.72;;;10.13;100.00
69306;BME280;56427;51.580;4.656;2023-04-28T07:27:30;100993.13;;;10.20;100.00
69306;BME280;56427;51.580;4.656;2023-04-28T07:29:56;100986.63;;;10.70;100.00
69306;BME280;56427;51.580;4.656;2023-04-28T07:32:21;100995.16;;;10.60;100.00
69306;BME280;56427;51.580;4.656;2023-04-28T07:34:48;100999.75;;;10.57;100.00
69306;BME280;56427;51.580;4.656;2023-04-28T07:37:13;100997.69;;;10.72;100.00
69306;BME280;56427;51.580;4.656;2023-04-28T07:39:39;101002.84;;;10.83;100.00
69306;BME280;56427;51.580;4.656;2023-04-28T07:42:06;101001.22;;;11.03;100.00
69306;BME280;56427;51.580;4.656;2023-04-28T07:44:31;101004.09;;;10.89;100.00
69306;BME280;56427;51.580;4.656;2023-04-28T07:46:58;101000.94;;;10.85;100.00
69306;BME280;56427;51.580;4.656;2023-04-28T07:49:25;101002.91;;;10.93;100.00
69306;BME280;56427;51.580;4.656;2023-04-28T07:51:50;100996.69;;;11.05;100.00
69306;BME280;56427;51.580;4.656;2023-04-28T07:54:18;100996.56;;;11.28;100.00
69306;BME280;56427;51.580;4.656;2023-04-28T07:56:44;101005.69;;;11.43;100.00
69306;BME280;56427;51.580;4.656;2023-04-28T07:59:09;101006.34;;;11.35;100.00
69306;BME280;56427;51.580;4.656;2023-04-28T08:01:35;101006.53;;;11.22;100.00
69306;BME280;56427;51.580;4.656;2023-04-28T08:04:00;101013.97;;;11.58;100.00
69306;BME280;56427;51.580;4.656;2023-04-28T08:06:26;101006.34;;;11.35;100.00
69306;BME280;56427;51.580;4.656;2023-04-28T08:08:51;101006.31;;;11.56;100.00
69306;BME280;56427;51.580;4.656;2023-04-28T08:11:16;100997.78;;;11.54;100.00
69306;BME280;56427;51.580;4.656;2023-04-28T08:13:42;101006.47;;;11.65;100.00
69306;BME280;56427;51.580;4.656;2023-04-28T08:16:07;100996.00;;;11.76;100.00
69306;BME280;56427;51.580;4.656;2023-04-28T08:18:32;101000.69;;;11.51;100.00
69306;BME280;56427;51.580;4.656;2023-04-28T08:20:58;100999.19;;;11.58;100.00
69306;BME280;56427;51.580;4.656;2023-04-28T08:23:23;101014.66;;;11.60;100.00
69306;BME280;56427;51.580;4.656;2023-04-28T08:25:52;101004.09;;;11.52;100.00
69306;BME280;56427;51.580;4.656;2023-04-28T08:28:18;101007.94;;;11.57;100.00
69306;BME280;56427;51.580;4.656;2023-04-28T08:30:43;101006.88;;;11.60;100.00
69306;BME280;56427;51.580;4.656;2023-04-28T08:33:09;101007.97;;;11.67;100.00
69306;BME280;56427;51.580;4.656;2023-04-28T08:35:34;101008.81;;;11.68;100.00
69306;BME280;56427;51.580;4.656;2023-04-28T08:37:59;101007.44;;;11.64;100.00
69306;BME280;56427;51.580;4.656;2023-04-28T08:40:25;101005.75;;;11.63;100.00
69306;BME280;56427;51.580;4.656;2023-04-28T08:42:51;101005.03;;;11.82;100.00
69306;BME280;56427;51.580;4.656;2023-04-28T08:45:16;101007.25;;;11.86;100.00
69306;BME280;56427;51.580;4.656;2023-04-28T08:47:42;101012.19;;;11.89;100.00
69306;BME280;56427;51.580;4.656;2023-04-28T08:50:12;101009.53;;;12.01;100.00
69306;BME280;56427;51.580;4.656;2023-04-28T08:52:39;101005.53;;;11.96;100.00
69306;BME280;56427;51.580;4.656;2023-04-28T08:55:07;101001.25;;;11.95;100.00
69306;BME280;56427;51.580;4.656;2023-04-28T08:57:48;101017.44;;;11.99;100.00
69306;BME280;56427;51.580;4.656;2023-04-28T09:00:14;101021.28;;;12.05;100.00
69306;BME280;56427;51.580;4.656;2023-04-28T09:02:39;101021.56;;;12.02;100.00
69306;BME280;56427;51.580;4.656;2023-04-28T09:05:09;101021.69;;;12.00;100.00
69306;BME280;56427;51.580;4.656;2023-04-28T09:07:35;101024.03;;;12.03;100.00
69306;BME280;56427;51.580;4.656;2023-04-28T09:12:43;101021.03;;;12.08;100.00
69306;BME280;56427;51.580;4.656;2023-04-28T09:15:09;101016.38;;;12.11;100.00
69306;BME280;56427;51.580;4.656;2023-04-28T09:17:48;101021.41;;;12.03;100.00
69306;BME280;56427;51.580;4.656;2023-04-28T09:20:26;101025.56;;;12.15;100.00
69306;BME280;56427;51.580;4.656;2023-04-28T09:22:52;101011.63;;;12.26;100.00
69306;BME280;56427;51.580;4.656;2023-04-28T09:25:19;101013.53;;;12.24;100.00
69306;BME280;56427;51.580;4.656;2023-04-28T09:27:50;101014.63;;;12.22;100.00
69306;BME280;56427;51.580;4.656;2023-04-28T09:30:16;101016.66;;;12.18;100.00
69306;BME280;56427;51.580;4.656;2023-04-28T09:32:41;101022.84;;;12.27;100.00
69306;BME280;56427;51.580;4.656;2023-04-28T09:35:07;101020.09;;;12.09;100.00
69306;BME280;56427;51.580;4.656;2023-04-28T09:37:33;101025.72;;;12.14;100.00
69306;BME280;56427;51.580;4.656;2023-04-28T09:40:09;101021.44;;;12.13;100.00
69306;BME280;56427;51.580;4.656;2023-04-28T09:42:40;101026.91;;;12.10;100.00
69306;BME280;56427;51.580;4.656;2023-04-28T09:45:11;101031.56;;;12.06;100.00
69306;BME280;56427;51.580;4.656;2023-04-28T09:50:06;101039.38;;;12.06;100.00
69306;BME280;56427;51.580;4.656;2023-04-28T09:52:34;101038.72;;;12.14;100.00
69306;BME280;56427;51.580;4.656;2023-04-28T09:55:01;101028.91;;;12.37;100.00
69306;BME280;56427;51.580;4.656;2023-04-28T09:57:33;101032.34;;;12.77;100.00
69306;BME280;56427;51.580;4.656;2023-04-28T10:00:00;101035.91;;;12.85;100.00
69306;BME280;56427;51.580;4.656;2023-04-28T10:02:26;101030.56;;;12.97;100.00
69306;BME280;56427;51.580;4.656;2023-04-28T10:04:52;101030.66;;;13.24;100.00
69306;BME280;56427;51.580;4.656;2023-04-28T10:07:19;101032.16;;;13.27;100.00
69306;BME280;56427;51.580;4.656;2023-04-28T10:09:47;101024.06;;;13.30;100.00
69306;BME280;56427;51.580;4.656;2023-04-28T10:12:15;101019.59;;;12.93;100.00
69306;BME280;56427;51.580;4.656;2023-04-28T10:14:41;101023.56;;;12.87;100.00
69306;BME280;56427;51.580;4.656;2023-04-28T10:17:07;101019.19;;;12.88;100.00
69306;BME280;56427;51.580;4.656;2023-04-28T10:19:36;101023.97;;;12.93;100.00
69306;BME280;56427;51.580;4.656;2023-04-28T10:27:44;101025.22;;;12.69;100.00
69306;BME280;56427;51.580;4.656;2023-04-28T10:32:43;101032.50;;;12.65;100.00
69306;BME280;56427;51.580;4.656;2023-04-28T10:42:58;101037.41;;;12.49;100.00
69306;BME280;56427;51.580;4.656;2023-04-28T10:56:07;101036.94;;;12.24;100.00
69306;BME280;56427;51.580;4.656;2023-04-28T10:58:32;101036.13;;;12.24;100.00
69306;BME280;56427;51.580;4.656;2023-04-28T11:04:00;101036.91;;;12.05;100.00
69306;BME280;56427;51.580;4.656;2023-04-28T11:06:39;101040.06;;;12.18;100.00
69306;BME280;56427;51.580;4.656;2023-04-28T11:11:37;101033.53;;;12.24;100.00
69306;BME280;56427;51.580;4.656;2023-04-28T11:16:51;101039.97;;;12.29;100.00
69306;BME280;56427;51.580;4.656;2023-04-28T11:19:22;101038.19;;;12.30;100.00
69306;BME280;56427;51.580;4.656;2023-04-28T11:21:49;101034.78;;;12.39;100.00
69306;BME280;56427;51.580;4.656;2023-04-28T11:24:15;101027.00;;;12.49;100.00
69306;BME280;56427;51.580;4.656;2023-04-28T11:26:41;101031.94;;;12.52;100.00
69306;BME280;56427;51.580;4.656;2023-04-28T11:29:08;101042.91;;;12.85;100.00
69306;BME280;56427;51.580;4.656;2023-04-28T11:31:33;101040.44;;;13.03;100.00
69306;BME280;56427;51.580;4.656;2023-04-28T11:34:11;101030.97;;;13.02;100.00
69306;BME280;56427;51.580;4.656;2023-04-28T11:36:39;101037.22;;;13.29;100.00
69306;BME280;56427;51.580;4.656;2023-04-28T11:39:06;101038.69;;;13.60;100.00
69306;BME280;56427;51.580;4.656;2023-04-28T11:41:37;101024.66;;;13.71;100.00
69306;BME280;56427;51.580;4.656;2023-04-28T11:44:12;101036.81;;;13.90;100.00
69306;BME280;56427;51.580;4.656;2023-04-28T11:49:10;101029.88;;;13.99;100.00
69306;BME280;56427;51.580;4.656;2023-04-28T11:51:37;101028.34;;;14.06;100.00
69306;BME280;56427;51.580;4.656;2023-04-28T11:54:05;101027.88;;;14.11;100.00
69306;BME280;56427;51.580;4.656;2023-04-28T11:56:38;101026.88;;;14.22;100.00
69306;BME280;56427;51.580;4.656;2023-04-28T11:59:10;101030.59;;;14.19;100.00
69306;BME280;56427;51.580;4.656;2023-04-28T12:01:47;101037.72;;;13.99;100.00
69306;BME280;56427;51.580;4.656;2023-04-28T12:04:14;101042.97;;;13.89;100.00
69306;BME280;56427;51.580;4.656;2023-04-28T12:07:07;101040.59;;;13.96;100.00
69306;BME280;56427;51.580;4.656;2023-04-28T12:09:35;101046.34;;;13.99;100.00
69306;BME280;56427;51.580;4.656;2023-04-28T12:12:03;101049.78;;;13.72;100.00
69306;BME280;56427;51.580;4.656;2023-04-28T12:14:30;101056.34;;;13.76;100.00
69306;BME280;56427;51.580;4.656;2023-04-28T12:16:59;101053.63;;;13.68;100.00
69306;BME280;56427;51.580;4.656;2023-04-28T12:19:25;101060.50;;;13.69;100.00
69306;BME280;56427;51.580;4.656;2023-04-28T12:22:02;101053.16;;;13.83;100.00
69306;BME280;56427;51.580;4.656;2023-04-28T12:24:29;101053.28;;;14.18;100.00
69306;BME280;56427;51.580;4.656;2023-04-28T12:27:12;101048.72;;;14.21;100.00
69306;BME280;56427;51.580;4.656;2023-04-28T12:29:40;101060.53;;;14.25;100.00
69306;BME280;56427;51.580;4.656;2023-04-28T12:32:08;101055.06;;;14.18;100.00
69306;BME280;56427;51.580;4.656;2023-04-28T12:34:35;101070.72;;;14.18;100.00
69306;BME280;56427;51.580;4.656;2023-04-28T12:37:01;101061.88;;;14.01;100.00
69306;BME280;56427;51.580;4.656;2023-04-28T12:39:27;101062.94;;;14.08;100.00
69306;BME280;56427;51.580;4.656;2023-04-28T12:41:53;101072.09;;;13.85;100.00
69306;BME280;56427;51.580;4.656;2023-04-28T12:44:20;101079.66;;;14.15;100.00
69306;BME280;56427;51.580;4.656;2023-04-28T12:46:46;101074.06;;;14.10;100.00
69306;BME280;56427;51.580;4.656;2023-04-28T12:49:12;101070.56;;;14.47;100.00
69306;BME280;56427;51.580;4.656;2023-04-28T12:51:38;101065.03;;;14.50;100.00
69306;BME280;56427;51.580;4.656;2023-04-28T12:54:04;101068.47;;;14.51;100.00
69306;BME280;56427;51.580;4.656;2023-04-28T12:56:29;101067.69;;;13.95;100.00
69306;BME280;56427;51.580;4.656;2023-04-28T12:58:54;101073.19;;;13.92;100.00
69306;BME280;56427;51.580;4.656;2023-04-28T13:01:20;101078.72;;;13.79;100.00
69306;BME280;56427;51.580;4.656;2023-04-28T13:03:45;101086.84;;;13.66;100.00
69306;BME280;56427;51.580;4.656;2023-04-28T13:06:12;101096.78;;;13.43;100.00
69306;BME280;56427;51.580;4.656;2023-04-28T13:08:37;101106.00;;;13.37;100.00
69306;BME280;56427;51.580;4.656;2023-04-28T13:11:03;101105.84;;;13.29;100.00
69306;BME280;56427;51.580;4.656;2023-04-28T13:13:30;101105.00;;;13.48;100.00
69306;BME280;56427;51.580;4.656;2023-04-28T13:15:55;101103.78;;;13.13;100.00
69306;BME280;56427;51.580;4.656;2023-04-28T13:18:20;101109.66;;;12.86;100.00
69306;BME280;56427;51.580;4.656;2023-04-28T13:20:47;101113.78;;;12.98;100.00
69306;BME280;56427;51.580;4.656;2023-04-28T13:23:13;101114.88;;;13.15;100.00